createdAt,value
2022-08-23T00:01:04.300Z,2.27
2022-08-23T00:03:18.510Z,2.30
2022-08-23T00:05:27.460Z,2.33
2022-08-23T00:07:38.758Z,2.20
2022-08-23T00:09:47.629Z,1.87
2022-08-23T00:11:57.775Z,2.20
2022-08-23T00:14:11.146Z,2.33
2022-08-23T00:16:19.910Z,2.30
2022-08-23T00:18:32.645Z,2.60
2022-08-23T00:20:41.568Z,2.20
2022-08-23T00:22:50.623Z,2.30
2022-08-23T00:24:59.704Z,1.97
2022-08-23T00:27:09.795Z,2.23
2022-08-23T00:29:18.478Z,2.60
2022-08-23T00:31:27.494Z,2.20
2022-08-23T00:33:38.871Z,2.53
2022-08-23T00:35:47.679Z,2.10
2022-08-23T00:38:31.744Z,2.20
2022-08-23T00:40:26.629Z,2.30
2022-08-23T00:42:54.678Z,2.43
2022-08-23T00:45:22.377Z,2.23
2022-08-23T00:47:44.947Z,2.20
2022-08-23T00:49:57.299Z,2.17
2022-08-23T00:52:10.662Z,2.20
2022-08-23T00:54:21.071Z,2.30
2022-08-23T00:56:31.482Z,2.00
2022-08-23T00:58:41.531Z,2.33
2022-08-23T01:00:51.565Z,2.30
2022-08-23T01:03:00.367Z,2.27
2022-08-23T01:05:13.782Z,2.10
2022-08-23T01:07:27.490Z,2.03
2022-08-23T01:09:38.075Z,2.30
2022-08-23T01:11:50.614Z,2.10
2022-08-23T01:14:00.843Z,2.17
2022-08-23T01:16:11.346Z,2.30
2022-08-23T01:18:21.659Z,2.10
2022-08-23T01:20:39.396Z,2.13
2022-08-23T01:22:52.187Z,2.20
2022-08-23T01:25:08.904Z,2.00
2022-08-23T01:27:21.696Z,2.20
2022-08-23T01:29:30.667Z,2.30
2022-08-23T01:31:46.341Z,2.77
2022-08-23T01:33:58.961Z,2.40
2022-08-23T01:36:09.656Z,2.10
2022-08-23T01:38:18.907Z,2.53
2022-08-23T01:40:29.467Z,2.20
2022-08-23T01:42:41.799Z,2.17
2022-08-23T01:44:50.469Z,2.03
2022-08-23T01:46:59.563Z,2.23
2022-08-23T01:49:08.786Z,2.23
2022-08-23T01:51:18.829Z,2.40
2022-08-23T01:53:27.534Z,2.17
2022-08-23T01:55:40.465Z,2.03
2022-08-23T01:57:54.287Z,2.30
2022-08-23T02:00:03.947Z,2.10
2022-08-23T02:02:24.150Z,2.20
2022-08-23T02:04:32.523Z,2.30
2022-08-23T02:06:41.203Z,2.27
2022-08-23T02:09:15.968Z,2.33
2022-08-23T02:11:28.673Z,2.27
2022-08-23T02:13:37.496Z,1.80
2022-08-23T02:15:47.031Z,2.07
2022-08-23T02:17:56.047Z,2.20
2022-08-23T02:20:05.907Z,1.87
2022-08-23T02:22:14.871Z,2.30
2022-08-23T02:24:25.726Z,2.00
2022-08-23T02:26:40.669Z,2.03
2022-08-23T02:28:56.475Z,2.20
2022-08-23T02:31:05.522Z,2.30
2022-08-23T02:33:14.527Z,2.47
2022-08-23T02:35:27.258Z,2.57
2022-08-23T02:37:36.426Z,2.20
2022-08-23T02:39:45.147Z,2.40
2022-08-23T02:42:08.041Z,1.90
2022-08-23T02:44:24.551Z,1.80
2022-08-23T02:46:34.208Z,2.30
2022-08-23T02:48:42.938Z,2.37
2022-08-23T02:50:52.615Z,2.17
2022-08-23T02:53:01.668Z,2.40
2022-08-23T02:55:11.023Z,2.10
2022-08-23T02:57:23.645Z,2.20
2022-08-23T02:59:32.078Z,2.10
2022-08-23T03:01:52.023Z,2.27
2022-08-23T03:04:01.989Z,2.23
2022-08-23T03:06:24.914Z,2.27
2022-08-23T03:08:34.422Z,2.30
2022-08-23T03:10:44.676Z,2.30
2022-08-23T03:12:55.511Z,2.30
2022-08-23T03:15:03.938Z,2.20
2022-08-23T03:17:15.290Z,2.10
2022-08-23T03:19:24.431Z,1.80
2022-08-23T03:21:33.338Z,1.90
2022-08-23T03:23:42.285Z,2.00
2022-08-23T03:25:51.508Z,2.20
2022-08-23T03:28:14.328Z,2.20
2022-08-23T03:30:23.334Z,2.27
2022-08-23T03:32:32.071Z,2.43
2022-08-23T03:34:40.798Z,2.10
2022-08-23T03:36:49.631Z,2.40
2022-08-23T03:39:00.451Z,2.03
2022-08-23T03:41:10.003Z,2.00
2022-08-23T03:43:20.502Z,2.23
2022-08-23T03:45:29.182Z,2.03
2022-08-23T03:47:37.625Z,2.20
2022-08-23T03:49:46.069Z,2.20
2022-08-23T03:51:57.112Z,2.10
2022-08-23T03:54:08.273Z,1.90
2022-08-23T03:56:23.907Z,2.13
2022-08-23T03:58:34.113Z,2.00
2022-08-23T04:00:42.983Z,2.13
2022-08-23T04:02:51.427Z,2.20
2022-08-23T04:05:00.262Z,2.43
2022-08-23T04:07:09.194Z,2.10
2022-08-23T04:09:19.611Z,2.20
2022-08-23T04:11:29.122Z,2.20
2022-08-23T04:13:39.393Z,1.80
2022-08-23T04:15:48.028Z,2.07
2022-08-23T04:17:56.918Z,2.13
2022-08-23T04:20:06.584Z,2.17
2022-08-23T04:22:20.144Z,1.90
2022-08-23T04:24:28.647Z,2.40
2022-08-23T04:26:37.527Z,2.10
2022-08-23T04:28:48.064Z,1.97
2022-08-23T04:31:00.457Z,2.00
2022-08-23T04:33:11.305Z,2.30
2022-08-23T04:35:21.431Z,2.10
2022-08-23T04:37:32.692Z,2.17
2022-08-23T04:39:55.434Z,2.10
2022-08-23T04:42:24.587Z,2.13
2022-08-23T04:44:36.128Z,2.10
2022-08-23T04:46:45.020Z,2.20
2022-08-23T04:48:54.192Z,2.27
2022-08-23T04:51:03.119Z,2.00
2022-08-23T04:53:12.028Z,2.30
2022-08-23T04:55:21.092Z,2.20
2022-08-23T04:57:30.900Z,2.20
2022-08-23T04:59:41.195Z,2.53
2022-08-23T05:01:50.159Z,2.30
2022-08-23T05:04:00.313Z,2.10
2022-08-23T05:06:09.471Z,2.23
2022-08-23T05:08:18.351Z,2.20
2022-08-23T05:10:27.299Z,2.60
2022-08-23T05:12:36.151Z,2.53
2022-08-23T05:14:47.809Z,2.20
2022-08-23T05:16:56.719Z,2.10
2022-08-23T05:19:05.846Z,2.10
2022-08-23T05:21:16.851Z,2.43
2022-08-23T05:23:31.901Z,2.00
2022-08-23T05:25:53.649Z,2.33
2022-08-23T05:28:02.472Z,2.50
2022-08-23T05:30:15.525Z,2.40
2022-08-23T05:32:24.278Z,2.40
2022-08-23T05:34:32.969Z,2.60
2022-08-23T05:36:48.370Z,2.10
2022-08-23T05:39:04.554Z,2.27
2022-08-23T05:41:13.454Z,2.23
2022-08-23T05:43:27.218Z,2.60
2022-08-23T05:45:37.596Z,2.20
2022-08-23T05:47:49.763Z,2.70
2022-08-23T05:49:58.875Z,2.30
2022-08-23T05:52:08.435Z,2.20
2022-08-23T05:54:17.114Z,2.40
2022-08-23T05:56:27.070Z,2.70
2022-08-23T05:58:36.024Z,2.37
2022-08-23T06:00:46.624Z,2.30
2022-08-23T06:02:55.611Z,2.73
2022-08-23T06:05:05.555Z,2.50
2022-08-23T06:07:16.717Z,2.37
2022-08-23T06:09:25.690Z,2.50
2022-08-23T06:11:34.243Z,2.93
2022-08-23T06:13:44.015Z,2.60
2022-08-23T06:15:54.144Z,2.87
2022-08-23T06:18:02.964Z,3.17
2022-08-23T06:20:12.393Z,3.23
2022-08-23T06:22:21.337Z,2.63
2022-08-23T06:24:30.059Z,2.63
2022-08-23T06:26:39.574Z,2.43
2022-08-23T06:28:51.562Z,2.80
2022-08-23T06:31:01.953Z,2.77
2022-08-23T06:33:11.663Z,2.83
2022-08-23T06:35:38.870Z,3.17
2022-08-23T06:37:48.782Z,2.70
2022-08-23T06:39:59.042Z,3.10
2022-08-23T06:42:36.490Z,2.97
2022-08-23T06:44:40.615Z,2.43
2022-08-23T06:46:50.937Z,3.07
2022-08-23T06:49:00.923Z,2.87
2022-08-23T06:51:13.400Z,2.93
2022-08-23T06:53:22.432Z,3.20
2022-08-23T06:55:31.556Z,2.67
2022-08-23T06:57:40.260Z,2.50
2022-08-23T06:59:50.727Z,2.83
2022-08-23T07:02:01.893Z,2.67
2022-08-23T07:04:11.327Z,2.70
2022-08-23T07:06:19.960Z,2.80
2022-08-23T07:08:28.801Z,2.73
2022-08-23T07:10:38.101Z,3.10
2022-08-23T07:12:47.333Z,2.60
2022-08-23T07:14:56.577Z,2.90
2022-08-23T07:17:07.094Z,2.97
2022-08-23T07:19:15.740Z,2.90
2022-08-23T07:21:24.851Z,2.70
2022-08-23T07:23:34.341Z,2.57
2022-08-23T07:25:43.989Z,2.50
2022-08-23T07:27:54.503Z,2.70
2022-08-23T07:30:03.269Z,2.67
2022-08-23T07:32:13.908Z,3.07
2022-08-23T07:34:23.139Z,2.80
2022-08-23T07:36:32.760Z,2.37
2022-08-23T07:38:41.539Z,1.60
2022-08-23T07:40:53.936Z,2.10
2022-08-23T07:43:03.408Z,2.10
2022-08-23T07:45:13.130Z,2.10
2022-08-23T07:47:24.119Z,1.97
2022-08-23T07:49:33.251Z,1.83
2022-08-23T07:51:42.707Z,2.33
2022-08-23T07:53:52.043Z,2.17
2022-08-23T07:56:01.183Z,2.00
2022-08-23T07:58:12.526Z,1.93
2022-08-23T08:00:21.212Z,2.13
2022-08-23T08:02:32.146Z,2.03
2022-08-23T08:04:42.346Z,1.97
2022-08-23T08:07:17.265Z,2.00
2022-08-23T08:09:21.308Z,1.90
2022-08-23T08:11:34.725Z,2.20
2022-08-23T08:13:45.198Z,2.27
2022-08-23T08:15:55.322Z,2.33
2022-08-23T08:18:06.211Z,2.33
2022-08-23T08:20:15.524Z,2.10
2022-08-23T08:22:24.326Z,2.27
2022-08-23T08:24:33.391Z,2.30
2022-08-23T08:26:42.511Z,2.07
2022-08-23T08:28:52.322Z,2.30
2022-08-23T08:31:01.398Z,2.10
2022-08-23T08:33:12.088Z,2.20
2022-08-23T08:35:20.749Z,2.37
2022-08-23T08:37:29.884Z,2.37
2022-08-23T08:39:45.692Z,2.20
2022-08-23T08:42:04.727Z,2.07
2022-08-23T08:44:19.702Z,2.20
2022-08-23T08:46:37.417Z,2.50
2022-08-23T08:48:49.917Z,2.20
2022-08-23T08:50:59.595Z,2.40
2022-08-23T08:53:11.494Z,2.20
2022-08-23T08:55:22.638Z,2.30
2022-08-23T08:57:35.205Z,2.30
2022-08-23T08:59:48.466Z,2.17
2022-08-23T09:01:57.149Z,2.07
2022-08-23T09:04:08.026Z,1.97
2022-08-23T09:06:18.941Z,2.20
2022-08-23T09:08:43.869Z,2.17
2022-08-23T09:10:54.307Z,1.87
2022-08-23T09:13:19.893Z,1.97
2022-08-23T09:15:33.091Z,1.80
2022-08-23T09:17:45.345Z,2.10
2022-08-23T09:20:00.446Z,2.53
2022-08-23T09:22:13.508Z,2.30
2022-08-23T09:24:22.847Z,1.80
2022-08-23T09:26:35.304Z,2.00
2022-08-23T09:28:45.406Z,2.00
2022-08-23T09:30:55.140Z,2.00
2022-08-23T09:33:16.318Z,1.97
2022-08-23T09:35:28.395Z,2.00
2022-08-23T09:37:48.931Z,1.93
2022-08-23T09:40:14.579Z,1.80
2022-08-23T09:42:31.943Z,1.57
2022-08-23T09:44:42.208Z,1.50
2022-08-23T09:46:51.011Z,1.40
2022-08-23T09:49:01.584Z,1.70
2022-08-23T09:51:18.359Z,1.20
2022-08-23T09:53:28.692Z,1.70
2022-08-23T09:55:38.873Z,1.23
2022-08-23T09:57:50.876Z,1.53
2022-08-23T10:00:03.484Z,1.60
2022-08-23T10:02:17.222Z,2.30
2022-08-23T10:04:26.936Z,1.50
2022-08-23T10:06:37.585Z,1.50
2022-08-23T10:08:53.772Z,1.70
2022-08-23T10:11:06.343Z,1.53
2022-08-23T10:13:18.435Z,1.77
2022-08-23T10:15:38.252Z,1.43
2022-08-23T10:17:53.673Z,1.50
2022-08-23T10:20:18.770Z,1.50
2022-08-23T10:22:30.039Z,2.20
2022-08-23T10:24:41.617Z,1.43
2022-08-23T10:27:01.813Z,1.47
2022-08-23T10:29:31.557Z,1.47
2022-08-23T10:31:45.631Z,1.50
2022-08-23T10:34:00.238Z,1.60
2022-08-23T10:36:13.195Z,1.30
2022-08-23T10:38:38.854Z,1.30
2022-08-23T10:40:52.246Z,1.50
2022-08-23T10:43:09.978Z,1.50
2022-08-23T10:45:22.855Z,1.70
2022-08-23T10:47:37.598Z,1.60
2022-08-23T10:49:52.911Z,1.27
2022-08-23T10:52:04.415Z,1.50
2022-08-23T10:54:29.563Z,1.50
2022-08-23T10:56:42.967Z,1.47
2022-08-23T10:58:55.044Z,1.60
2022-08-23T11:01:03.960Z,1.50
2022-08-23T11:03:21.932Z,1.23
2022-08-23T11:05:35.686Z,1.50
2022-08-23T11:07:45.055Z,1.60
2022-08-23T11:09:58.587Z,1.23
2022-08-23T11:12:17.777Z,1.30
2022-08-23T11:14:35.843Z,1.40
2022-08-23T11:16:49.167Z,1.30
2022-08-23T11:18:59.319Z,1.53
2022-08-23T11:21:11.493Z,1.50
2022-08-23T11:23:38.677Z,1.53
2022-08-23T11:25:50.676Z,1.40
2022-08-23T11:28:32.772Z,1.40
2022-08-23T11:30:50.080Z,1.53
2022-08-23T11:32:58.941Z,1.40
2022-08-23T11:35:15.034Z,1.40
2022-08-23T11:37:29.135Z,1.63
2022-08-23T11:40:03.705Z,1.30
2022-08-23T11:42:15.584Z,1.40
2022-08-23T11:44:26.340Z,1.30
2022-08-23T11:46:36.495Z,1.30
2022-08-23T11:48:47.274Z,1.40
2022-08-23T11:51:17.256Z,1.20
2022-08-23T11:53:34.902Z,1.03
2022-08-23T11:55:54.487Z,1.43
2022-08-23T11:58:17.788Z,1.43
2022-08-23T12:00:29.780Z,1.30
2022-08-23T12:02:47.916Z,1.40
2022-08-23T12:04:57.526Z,1.20
2022-08-23T12:07:12.979Z,1.60
2022-08-23T12:09:41.015Z,1.43
2022-08-23T12:12:17.477Z,1.60
2022-08-23T12:14:38.418Z,1.87
2022-08-23T12:16:49.940Z,1.80
2022-08-23T12:19:00.511Z,1.23
2022-08-23T12:21:11.390Z,1.70
2022-08-23T12:23:21.304Z,1.50
2022-08-23T12:25:31.518Z,1.63
2022-08-23T12:27:44.809Z,1.53
2022-08-23T12:29:59.733Z,1.60
2022-08-23T12:32:13.018Z,1.50
2022-08-23T12:34:25.487Z,1.50
2022-08-23T12:36:38.574Z,1.60
2022-08-23T12:38:57.718Z,1.50
2022-08-23T12:41:16.226Z,1.67
2022-08-23T12:43:26.738Z,1.93
2022-08-23T12:45:42.299Z,1.47
2022-08-23T12:47:58.538Z,1.77
2022-08-23T12:50:10.655Z,1.63
2022-08-23T12:52:25.522Z,1.60
2022-08-23T12:54:37.385Z,1.63
2022-08-23T12:56:47.582Z,1.97
2022-08-23T12:58:58.111Z,1.67
2022-08-23T13:01:23.110Z,1.70
2022-08-23T13:03:35.519Z,1.73
2022-08-23T13:05:48.042Z,1.70
2022-08-23T13:08:02.724Z,1.50
2022-08-23T13:10:12.622Z,1.63
2022-08-23T13:12:22.109Z,1.57
2022-08-23T13:14:37.708Z,1.40
2022-08-23T13:16:48.390Z,1.50
2022-08-23T13:18:57.526Z,1.60
2022-08-23T13:21:40.075Z,1.60
2022-08-23T13:23:49.037Z,1.67
2022-08-23T13:25:58.227Z,1.63
2022-08-23T13:28:08.670Z,1.60
2022-08-23T13:30:23.254Z,1.60
2022-08-23T13:32:48.844Z,1.77
2022-08-23T13:35:19.556Z,1.50
2022-08-23T13:37:30.693Z,1.60
2022-08-23T13:39:41.803Z,1.37
2022-08-23T13:41:50.505Z,1.57
2022-08-23T13:43:59.476Z,1.50
2022-08-23T13:46:14.993Z,1.50
2022-08-23T13:48:25.317Z,1.50
2022-08-23T13:50:37.737Z,1.70
2022-08-23T13:53:13.039Z,1.90
2022-08-23T13:55:16.144Z,1.40
2022-08-23T13:57:29.595Z,1.30
2022-08-23T13:59:40.508Z,1.70
2022-08-23T14:01:51.819Z,1.70
2022-08-23T14:04:00.829Z,1.63
2022-08-23T14:06:11.234Z,1.50
2022-08-23T14:08:21.386Z,1.40
2022-08-23T14:10:32.643Z,1.53
2022-08-23T14:12:43.794Z,1.90
2022-08-23T14:14:53.002Z,1.50
2022-08-23T14:17:02.952Z,1.50
2022-08-23T14:19:19.178Z,1.80
2022-08-23T14:21:45.464Z,1.63
2022-08-23T14:23:54.591Z,1.57
2022-08-23T14:26:03.450Z,1.50
2022-08-23T14:28:12.937Z,1.70
2022-08-23T14:30:25.174Z,2.20
2022-08-23T14:32:38.836Z,2.10
2022-08-23T14:34:47.938Z,2.10
2022-08-23T14:39:27.050Z,2.47
2022-08-23T14:41:35.869Z,2.60
2022-08-23T14:43:44.823Z,2.33
2022-08-23T14:45:54.226Z,2.57
2022-08-23T14:48:03.154Z,2.30
2022-08-23T14:50:13.469Z,2.67
2022-08-23T14:52:24.071Z,2.87
2022-08-23T14:54:33.098Z,2.53
2022-08-23T14:56:41.926Z,2.60
2022-08-23T14:58:51.012Z,2.60
2022-08-23T15:01:00.151Z,2.90
2022-08-23T15:03:10.375Z,2.40
2022-08-23T15:05:19.803Z,2.73
2022-08-23T15:07:30.799Z,2.93
2022-08-23T15:09:39.898Z,2.83
2022-08-23T15:14:21.194Z,2.60
2022-08-23T15:16:30.034Z,3.07
2022-08-23T15:18:39.642Z,2.77
2022-08-23T15:20:48.807Z,2.70
2022-08-23T15:23:02.965Z,2.47
2022-08-23T15:25:12.418Z,2.70
2022-08-23T15:27:21.357Z,2.73
2022-08-23T15:29:30.491Z,2.83
2022-08-23T15:31:39.837Z,2.80
2022-08-23T15:33:49.217Z,2.73
2022-08-23T15:35:59.145Z,2.93
2022-08-23T15:38:09.931Z,2.70
2022-08-23T15:40:21.145Z,2.77
2022-08-23T15:42:29.883Z,2.77
2022-08-23T15:44:38.929Z,2.80
2022-08-23T15:46:50.009Z,2.67
2022-08-23T15:49:02.132Z,2.50
2022-08-23T15:51:12.085Z,2.47
2022-08-23T15:53:23.035Z,2.83
2022-08-23T15:55:33.178Z,3.17
2022-08-23T15:57:43.928Z,2.73
2022-08-23T15:59:52.712Z,2.73
2022-08-23T16:02:01.877Z,2.47
2022-08-23T16:04:10.919Z,2.70
2022-08-23T16:06:19.843Z,2.43
2022-08-23T16:08:32.982Z,2.77
2022-08-23T16:10:42.156Z,2.40
2022-08-23T16:12:51.448Z,2.80
2022-08-23T16:15:00.635Z,2.80
2022-08-23T16:17:10.002Z,2.83
2022-08-23T16:19:18.911Z,2.97
2022-08-23T16:21:31.890Z,2.90
2022-08-23T16:23:43.530Z,2.63
2022-08-23T16:25:52.889Z,2.90
2022-08-23T16:28:02.451Z,2.63
2022-08-23T16:30:12.628Z,2.53
2022-08-23T16:32:22.070Z,2.73
2022-08-23T16:34:31.423Z,2.23
2022-08-23T16:36:40.926Z,2.40
2022-08-23T16:38:51.763Z,2.57
2022-08-23T16:41:03.648Z,2.23
2022-08-23T16:43:12.607Z,2.50
2022-08-23T16:45:25.153Z,2.40
2022-08-23T16:47:40.043Z,2.60
2022-08-23T16:49:48.710Z,2.70
2022-08-23T16:51:58.167Z,2.70
2022-08-23T16:54:09.599Z,3.00
2022-08-23T16:56:18.823Z,3.10
2022-08-23T16:58:28.971Z,2.90
2022-08-23T17:00:41.349Z,2.93
2022-08-23T17:02:51.838Z,3.27
2022-08-23T17:05:01.022Z,3.00
2022-08-23T17:07:09.709Z,2.87
2022-08-23T17:09:20.405Z,3.10
2022-08-23T17:11:32.773Z,3.13
2022-08-23T17:13:41.668Z,3.20
2022-08-23T17:15:50.256Z,3.30
2022-08-23T17:18:00.161Z,2.83
2022-08-23T17:20:11.315Z,2.80
2022-08-23T17:22:20.523Z,3.10
2022-08-23T17:24:31.046Z,3.20
2022-08-23T17:26:40.530Z,3.10
2022-08-23T17:28:49.366Z,3.10
2022-08-23T17:30:58.420Z,3.07
2022-08-23T17:33:08.480Z,2.90
2022-08-23T17:35:18.687Z,3.30
2022-08-23T17:37:27.796Z,3.63
2022-08-23T17:39:38.383Z,3.23
2022-08-23T17:41:47.287Z,3.60
2022-08-23T17:43:56.445Z,3.60
2022-08-23T17:46:05.384Z,3.30
2022-08-23T17:48:14.883Z,3.43
2022-08-23T17:50:24.157Z,3.40
2022-08-23T17:52:33.325Z,3.43
2022-08-23T17:54:44.519Z,3.20
2022-08-23T17:56:53.830Z,3.50
2022-08-23T17:59:03.264Z,3.00
2022-08-23T18:01:13.727Z,2.90
2022-08-23T18:03:22.888Z,3.10
2022-08-23T18:05:33.539Z,3.20
2022-08-23T18:07:42.393Z,2.70
2022-08-23T18:09:53.836Z,3.30
2022-08-23T18:12:04.428Z,3.03
2022-08-23T18:14:13.926Z,3.33
2022-08-23T18:16:23.259Z,3.33
2022-08-23T18:18:32.901Z,3.70
2022-08-23T18:20:43.469Z,2.90
2022-08-23T18:22:52.900Z,3.13
2022-08-23T18:25:06.238Z,3.30
2022-08-23T18:27:32.883Z,3.27
2022-08-23T18:29:42.854Z,3.40
2022-08-23T18:31:56.026Z,3.20
2022-08-23T18:34:06.923Z,3.07
2022-08-23T18:36:16.167Z,3.20
2022-08-23T18:38:25.337Z,3.10
2022-08-23T18:40:45.907Z,2.97
2022-08-23T18:42:56.918Z,3.43
2022-08-23T18:45:06.557Z,3.43
2022-08-23T18:47:15.477Z,3.70
2022-08-23T18:49:24.249Z,3.73
2022-08-23T18:51:33.207Z,3.50
2022-08-23T18:53:42.129Z,3.70
2022-08-23T18:55:52.649Z,3.30
2022-08-23T18:58:02.664Z,3.33
2022-08-23T19:00:13.279Z,3.50
2022-08-23T19:02:24.410Z,3.40
2022-08-23T19:04:34.094Z,3.40
2022-08-23T19:06:43.650Z,3.17
2022-08-23T19:08:53.706Z,3.30
2022-08-23T19:11:06.249Z,3.33
2022-08-23T19:13:17.697Z,3.20
2022-08-23T19:15:29.613Z,3.37
2022-08-23T19:17:40.497Z,3.20
2022-08-23T19:19:50.528Z,3.47
2022-08-23T19:21:59.502Z,3.30
2022-08-23T19:24:09.191Z,2.97
2022-08-23T19:26:21.553Z,3.17
2022-08-23T19:28:33.091Z,3.30
2022-08-23T19:30:42.299Z,2.97
2022-08-23T19:32:50.982Z,3.40
2022-08-23T19:34:59.978Z,3.50
2022-08-23T19:37:10.804Z,3.00
2022-08-23T19:39:36.051Z,3.10
2022-08-23T19:41:48.848Z,3.17
2022-08-23T19:43:58.626Z,3.00
2022-08-23T19:46:14.235Z,3.20
2022-08-23T19:48:23.769Z,2.60
2022-08-23T19:50:33.035Z,3.03
2022-08-23T19:52:42.147Z,3.03
2022-08-23T19:54:51.489Z,3.10
2022-08-23T19:57:02.291Z,2.70
2022-08-23T19:59:12.309Z,3.00
2022-08-23T20:01:21.774Z,3.00
2022-08-23T20:03:31.029Z,2.67
2022-08-23T20:05:39.971Z,2.97
2022-08-23T20:07:48.647Z,2.80
2022-08-23T20:09:57.671Z,2.83
2022-08-23T20:12:09.280Z,2.87
2022-08-23T20:14:17.971Z,2.90
2022-08-23T20:16:27.513Z,3.10
2022-08-23T20:18:36.718Z,3.07
2022-08-23T20:20:46.440Z,3.07
2022-08-23T20:23:13.070Z,2.93
2022-08-23T20:25:22.127Z,2.70
2022-08-23T20:27:32.663Z,2.57
2022-08-23T20:29:42.655Z,2.77
2022-08-23T20:31:53.518Z,2.90
2022-08-23T20:34:02.694Z,2.30
2022-08-23T20:36:11.596Z,2.33
2022-08-23T20:38:32.123Z,2.20
2022-08-23T20:40:43.597Z,2.20
2022-08-23T20:42:54.131Z,2.30
2022-08-23T20:45:02.811Z,1.87
2022-08-23T20:47:11.592Z,2.00
2022-08-23T20:49:21.221Z,1.80
2022-08-23T20:51:30.307Z,1.60
2022-08-23T20:53:39.158Z,1.77
2022-08-23T20:55:48.139Z,1.60
2022-08-23T20:57:58.601Z,1.70
2022-08-23T21:00:08.360Z,1.50
2022-08-23T21:02:17.437Z,1.57
2022-08-23T21:04:29.832Z,1.37
2022-08-23T21:06:45.167Z,1.37
2022-08-23T21:08:56.023Z,1.50
2022-08-23T21:11:05.264Z,1.70
2022-08-23T21:13:16.294Z,1.47
2022-08-23T21:15:25.090Z,1.43
2022-08-23T21:17:33.797Z,1.60
2022-08-23T21:19:44.320Z,1.70
2022-08-23T21:21:53.104Z,1.40
2022-08-23T21:24:03.406Z,1.70
2022-08-23T21:26:12.398Z,1.63
2022-08-23T21:28:22.854Z,1.30
2022-08-23T21:30:31.606Z,1.50
2022-08-23T21:32:40.907Z,1.47
2022-08-23T21:34:49.900Z,1.40
2022-08-23T21:36:58.836Z,1.50
2022-08-23T21:39:08.539Z,1.40
2022-08-23T21:41:29.110Z,1.30
2022-08-23T21:43:40.146Z,1.40
2022-08-23T21:45:50.625Z,1.50
2022-08-23T21:48:01.369Z,1.50
2022-08-23T21:50:10.647Z,1.93
2022-08-23T21:52:19.638Z,1.50
2022-08-23T21:54:28.678Z,1.60
2022-08-23T21:56:37.534Z,1.60
2022-08-23T21:58:50.679Z,1.50
2022-08-23T22:00:59.483Z,1.63
2022-08-23T22:03:08.091Z,2.03
2022-08-23T22:05:16.774Z,1.87
2022-08-23T22:07:25.370Z,1.70
2022-08-23T22:09:34.495Z,1.97
2022-08-23T22:11:44.112Z,1.87
2022-08-23T22:13:55.219Z,1.90
2022-08-23T22:16:03.897Z,1.70
2022-08-23T22:18:13.016Z,1.90
2022-08-23T22:20:21.794Z,1.83
2022-08-23T22:22:30.800Z,1.77
2022-08-23T22:24:39.665Z,1.70
2022-08-23T22:26:48.991Z,2.00
2022-08-23T22:28:59.643Z,1.87
2022-08-23T22:31:09.832Z,1.90
2022-08-23T22:33:19.164Z,2.10
2022-08-23T22:35:27.753Z,1.80
2022-08-23T22:37:43.058Z,1.90
2022-08-23T22:40:03.733Z,1.87
2022-08-23T22:42:13.792Z,1.90
2022-08-23T22:44:24.591Z,1.87
2022-08-23T22:46:34.584Z,2.20
2022-08-23T22:48:43.372Z,2.00
2022-08-23T22:50:52.892Z,1.90
2022-08-23T22:53:01.698Z,1.90
2022-08-23T22:55:10.619Z,2.00
2022-08-23T22:57:19.334Z,1.90
2022-08-23T22:59:33.049Z,2.20
2022-08-23T23:01:44.222Z,1.90
2022-08-23T23:03:54.063Z,2.07
2022-08-23T23:06:03.107Z,1.90
2022-08-23T23:08:30.394Z,2.03
2022-08-23T23:10:39.372Z,1.80
2022-08-23T23:12:48.379Z,2.00
2022-08-23T23:14:58.867Z,1.93
2022-08-23T23:17:07.813Z,2.10
2022-08-23T23:19:34.633Z,2.03
2022-08-23T23:21:44.812Z,1.80
2022-08-23T23:23:53.974Z,1.90
2022-08-23T23:26:03.937Z,1.80
2022-08-23T23:28:12.893Z,1.97
2022-08-23T23:30:23.740Z,2.20
2022-08-23T23:32:32.698Z,2.20
2022-08-23T23:34:42.641Z,2.00
2022-08-23T23:36:51.351Z,2.10
2022-08-23T23:39:00.691Z,2.13
2022-08-23T23:41:09.823Z,1.90
2022-08-23T23:43:18.919Z,2.30
2022-08-23T23:45:29.956Z,2.00
2022-08-23T23:47:39.043Z,2.20
2022-08-23T23:49:47.666Z,2.20
2022-08-23T23:51:56.303Z,2.00
2022-08-23T23:54:07.361Z,2.00
2022-08-23T23:56:16.771Z,1.70
2022-08-23T23:58:25.930Z,2.20
